Tropical Cyclones
[Index]
Main Index Home Page Stock Weather Photos Extreme Storms Discussion Storm News and Storm Chasing Reports Tropical Cyclones / Hurricanes / Typhoons Weather Data and Links Wild Fires / Bushfires Weather Observation Techniques Weather Picture Catalogue Tornado Pictures and Reports Stock Video Footage and DVDs for sale
Season 2004-2005 Tropical Cyclone AROLA Track Map
Season 2004-2005 Summaries: [BoM-AU] [JTWC-AU] [JTWC-SIO] [JTWC-SPAC] [JTWC-SH]
<<- Previous TC | JTWC 2004-2005 Season | Next TC ->>

click for intensity scale information  Lat/long Grid: Show Hide

 Date Labels: Show Hide

Joint Typhoon Warning Centre Cyclone Data

Name: AROLA

07 Nov 2004 06:00 UTC to 15 Nov 2004 00:00 UTC

    date/time    lat    long     hPa   cat  kts
2004-11-07 06    6.8    82.7    1002         25          
2004-11-07 12    7.9    81.8    1002         25          
2004-11-07 18    8.8    81.0    1000         30          
2004-11-08 00    9.4    79.9    1000         30          
2004-11-08 06    9.9    79.1     997         35          
2004-11-08 12   10.3    78.5     991    1    45          
2004-11-08 18   10.7    77.9     984    2    55          
2004-11-09 00   10.9    77.2     976    2    65          
2004-11-09 00   10.9    77.2     976    2    65          
2004-11-09 00   10.9    77.2     976    2    65          
2004-11-09 06   11.0    76.6     980    2    60          
2004-11-09 06   11.0    76.6     980    2    60          
2004-11-09 12   10.8    76.0     980    2    60          
2004-11-09 12   10.8    76.0     980    2    60          
2004-11-09 18   10.7    75.6     980    2    60          
2004-11-09 18   10.7    75.6     980    2    60          
2004-11-10 00   10.7    75.3     980    2    60          
2004-11-10 00   10.7    75.3     980    2    60          
2004-11-10 06   10.8    75.0     980    2    60          
2004-11-10 06   10.8    75.0     980    2    60          
2004-11-10 12   10.9    74.7     984    2    55          
2004-11-10 12   10.9    74.7     984    2    55          
2004-11-10 18   11.0    74.5     984    2    55          
2004-11-10 18   11.0    74.5     984    2    55          
2004-11-11 00   11.1    74.3     984    2    55          
2004-11-11 00   11.1    74.3     984    2    55          
2004-11-11 06   11.3    74.2     987    1    50          
2004-11-11 06   11.3    74.2     987    1    50          
2004-11-11 12   11.6    74.0     987    1    50          
2004-11-11 18   12.0    73.7     991    1    45          
2004-11-12 00   12.3    73.4     991    1    45          
2004-11-12 06   12.5    73.0     994    1    40          
2004-11-12 12   12.6    72.4     997         35          
2004-11-12 18   12.8    71.6     997         35          
2004-11-13 00   13.0    70.7    1000         30          
2004-11-13 06   13.1    69.7    1002         25          
2004-11-13 12   13.1    68.9    1002         25          
2004-11-13 18   13.0    68.2    1002         25          
2004-11-14 00   13.1    67.4    1002         25          
2004-11-14 06   13.3    66.7    1002         25          
2004-11-14 12   13.5    66.2    1002         25          
2004-11-14 18   13.6    65.6    1004         20          
2004-11-15 00   13.7    65.0    1004         20          
Winds are 1-min average.

Tropical cyclone tracks developed by Michael Bath using data from the Joint Typhoon Warning Centre Best Tracks and Google Maps.


[Australian Severe Weather index] [Copyright Notice] [Email Contacts] [Search This Site] [Privacy Policy]
Document: tropical_cyclone_arola.htm Updated: 28 June 2017